Phoenix, Arizona
Traffic Map
Current Weather Conditions
Phoenix, Arizona
Few Clouds
Few Clouds
48°
Feels Like: 45°
Wind Chill: 45° Ceiling: Unl
Heat Index: 48° Visibility: 10mi
Dew Point: 31° Wind: 7mph
Humidity: 52% Direction: 80° (E)
Pressure: 30.03in Gusts: 0mph
Raw Report DataKPHX 221351Z 08006KT 10SM FEW200 09/M01 A3003 RMK AO2 SLP163 T00891006
Traffic Incident Summary
Active as of:
Severity:
Category:
InformationThere was an issue retrieving the traffic information for this location. Please try a different location or try again shortly.
Advertisements
Track Severe Weather on mobile